sensor_id;sensor_type;location;lat;lon;timestamp;temperature;humidity
44229;DHT22;29904;51.058;5.378;2022-09-13T00:00:42;18.40;99.90
44229;DHT22;29904;51.058;5.378;2022-09-13T00:03:10;18.50;99.90
44229;DHT22;29904;51.058;5.378;2022-09-13T00:05:37;18.50;99.90
44229;DHT22;29904;51.058;5.378;2022-09-13T00:08:05;18.50;99.90
44229;DHT22;29904;51.058;5.378;2022-09-13T00:10:34;18.50;99.90
44229;DHT22;29904;51.058;5.378;2022-09-13T00:13:00;18.60;99.90
44229;DHT22;29904;51.058;5.378;2022-09-13T00:15:26;18.60;99.90
44229;DHT22;29904;51.058;5.378;2022-09-13T00:17:52;18.60;99.90
44229;DHT22;29904;51.058;5.378;2022-09-13T00:20:18;18.60;99.90
44229;DHT22;29904;51.058;5.378;2022-09-13T00:22:46;18.60;99.90
44229;DHT22;29904;51.058;5.378;2022-09-13T00:25:11;18.60;99.90
44229;DHT22;29904;51.058;5.378;2022-09-13T00:27:37;18.50;99.90
44229;DHT22;29904;51.058;5.378;2022-09-13T00:30:04;18.40;99.90
44229;DHT22;29904;51.058;5.378;2022-09-13T00:32:30;18.40;99.90
44229;DHT22;29904;51.058;5.378;2022-09-13T00:34:56;18.30;99.90
44229;DHT22;29904;51.058;5.378;2022-09-13T00:37:22;18.20;99.90
44229;DHT22;29904;51.058;5.378;2022-09-13T00:39:48;18.20;99.90
44229;DHT22;29904;51.058;5.378;2022-09-13T00:42:14;18.20;99.90
44229;DHT22;29904;51.058;5.378;2022-09-13T00:47:33;18.10;99.90
44229;DHT22;29904;51.058;5.378;2022-09-13T00:50:13;18.00;99.90
44229;DHT22;29904;51.058;5.378;2022-09-13T00:52:40;18.00;99.90
44229;DHT22;29904;51.058;5.378;2022-09-13T00:55:15;17.90;99.90
44229;DHT22;29904;51.058;5.378;2022-09-13T00:57:42;17.90;99.90
44229;DHT22;29904;51.058;5.378;2022-09-13T01:00:11;17.90;99.90
44229;DHT22;29904;51.058;5.378;2022-09-13T01:03:00;17.80;99.90
44229;DHT22;29904;51.058;5.378;2022-09-13T01:05:30;17.70;99.90
44229;DHT22;29904;51.058;5.378;2022-09-13T01:07:57;17.70;99.90
44229;DHT22;29904;51.058;5.378;2022-09-13T01:10:24;17.70;99.90
44229;DHT22;29904;51.058;5.378;2022-09-13T01:13:07;17.60;99.90
44229;DHT22;29904;51.058;5.378;2022-09-13T01:15:40;17.60;99.90
44229;DHT22;29904;51.058;5.378;2022-09-13T01:18:09;17.60;99.90
44229;DHT22;29904;51.058;5.378;2022-09-13T01:31:56;17.80;99.90
44229;DHT22;29904;51.058;5.378;2022-09-13T01:34:38;17.80;99.90
44229;DHT22;29904;51.058;5.378;2022-09-13T01:40:22;18.00;99.90
44229;DHT22;29904;51.058;5.378;2022-09-13T01:48:19;18.10;99.90
44229;DHT22;29904;51.058;5.378;2022-09-13T01:51:20;18.10;99.90
44229;DHT22;29904;51.058;5.378;2022-09-13T01:53:57;18.10;99.90
44229;DHT22;29904;51.058;5.378;2022-09-13T01:56:36;18.20;99.90
44229;DHT22;29904;51.058;5.378;2022-09-13T01:59:16;18.20;99.90
44229;DHT22;29904;51.058;5.378;2022-09-13T02:01:51;18.30;99.90
44229;DHT22;29904;51.058;5.378;2022-09-13T02:04:24;18.30;99.90
44229;DHT22;29904;51.058;5.378;2022-09-13T02:07:09;18.30;99.90
44229;DHT22;29904;51.058;5.378;2022-09-13T02:09:41;18.30;99.90
44229;DHT22;29904;51.058;5.378;2022-09-13T02:12:24;18.30;99.90
44229;DHT22;29904;51.058;5.378;2022-09-13T02:15:19;18.30;99.90
44229;DHT22;29904;51.058;5.378;2022-09-13T02:17:51;18.30;99.90
44229;DHT22;29904;51.058;5.378;2022-09-13T02:20:43;18.40;99.90
44229;DHT22;29904;51.058;5.378;2022-09-13T02:23:18;18.40;99.90
44229;DHT22;29904;51.058;5.378;2022-09-13T02:25:48;18.40;99.90
44229;DHT22;29904;51.058;5.378;2022-09-13T02:28:20;18.30;99.90
44229;DHT22;29904;51.058;5.378;2022-09-13T02:30:51;18.30;99.90
44229;DHT22;29904;51.058;5.378;2022-09-13T02:33:25;18.30;99.90
44229;DHT22;29904;51.058;5.378;2022-09-13T02:36:05;18.30;99.90
44229;DHT22;29904;51.058;5.378;2022-09-13T02:41:13;18.40;99.90
44229;DHT22;29904;51.058;5.378;2022-09-13T02:43:44;18.40;99.90
44229;DHT22;29904;51.058;5.378;2022-09-13T02:54:41;18.40;99.90
44229;DHT22;29904;51.058;5.378;2022-09-13T02:57:14;18.40;99.90
44229;DHT22;29904;51.058;5.378;2022-09-13T02:59:45;18.40;99.90
44229;DHT22;29904;51.058;5.378;2022-09-13T03:02:13;18.40;99.90
44229;DHT22;29904;51.058;5.378;2022-09-13T03:04:41;18.40;99.90
44229;DHT22;29904;51.058;5.378;2022-09-13T03:07:15;18.40;99.90
44229;DHT22;29904;51.058;5.378;2022-09-13T03:09:53;18.30;99.90
44229;DHT22;29904;51.058;5.378;2022-09-13T03:26:19;18.30;99.90
44229;DHT22;29904;51.058;5.378;2022-09-13T03:35:06;18.30;99.90
44229;DHT22;29904;51.058;5.378;2022-09-13T03:37:23;18.30;99.90
44229;DHT22;29904;51.058;5.378;2022-09-13T03:40:01;18.30;99.90
44229;DHT22;29904;51.058;5.378;2022-09-13T03:42:41;18.30;99.90
44229;DHT22;29904;51.058;5.378;2022-09-13T03:45:08;18.30;99.90
44229;DHT22;29904;51.058;5.378;2022-09-13T03:47:36;18.30;99.90
44229;DHT22;29904;51.058;5.378;2022-09-13T03:50:06;18.30;99.90
44229;DHT22;29904;51.058;5.378;2022-09-13T03:52:33;18.40;99.90
44229;DHT22;29904;51.058;5.378;2022-09-13T03:55:00;18.40;99.90
44229;DHT22;29904;51.058;5.378;2022-09-13T03:57:26;18.40;99.90
44229;DHT22;29904;51.058;5.378;2022-09-13T03:59:54;18.40;99.90
44229;DHT22;29904;51.058;5.378;2022-09-13T04:02:21;18.40;99.90
44229;DHT22;29904;51.058;5.378;2022-09-13T04:04:48;18.40;99.90
44229;DHT22;29904;51.058;5.378;2022-09-13T04:07:16;18.40;99.90
44229;DHT22;29904;51.058;5.378;2022-09-13T04:09:44;18.40;99.90
44229;DHT22;29904;51.058;5.378;2022-09-13T04:12:11;18.40;99.90
44229;DHT22;29904;51.058;5.378;2022-09-13T04:14:39;18.40;99.90
44229;DHT22;29904;51.058;5.378;2022-09-13T04:17:07;18.40;99.90
44229;DHT22;29904;51.058;5.378;2022-09-13T04:19:33;18.40;99.90
44229;DHT22;29904;51.058;5.378;2022-09-13T04:21:59;18.40;99.90
44229;DHT22;29904;51.058;5.378;2022-09-13T04:24:27;18.40;99.90
44229;DHT22;29904;51.058;5.378;2022-09-13T04:26:54;18.40;99.90
44229;DHT22;29904;51.058;5.378;2022-09-13T04:29:21;18.40;99.90
44229;DHT22;29904;51.058;5.378;2022-09-13T04:31:47;18.40;99.90
44229;DHT22;29904;51.058;5.378;2022-09-13T04:34:13;18.40;99.90
44229;DHT22;29904;51.058;5.378;2022-09-13T04:36:39;18.50;99.90
44229;DHT22;29904;51.058;5.378;2022-09-13T04:39:07;18.50;99.90
44229;DHT22;29904;51.058;5.378;2022-09-13T04:41:33;18.40;99.90
44229;DHT22;29904;51.058;5.378;2022-09-13T04:44:00;18.40;99.90
44229;DHT22;29904;51.058;5.378;2022-09-13T04:46:27;18.50;99.90
44229;DHT22;29904;51.058;5.378;2022-09-13T04:48:53;18.40;99.90
44229;DHT22;29904;51.058;5.378;2022-09-13T04:51:19;18.40;99.90
44229;DHT22;29904;51.058;5.378;2022-09-13T04:53:50;18.40;99.90
44229;DHT22;29904;51.058;5.378;2022-09-13T04:56:17;18.40;99.90
44229;DHT22;29904;51.058;5.378;2022-09-13T04:58:44;18.30;99.90
44229;DHT22;29904;51.058;5.378;2022-09-13T05:01:09;18.40;99.90
44229;DHT22;29904;51.058;5.378;2022-09-13T05:03:36;18.30;99.90
44229;DHT22;29904;51.058;5.378;2022-09-13T05:06:07;18.30;99.90
44229;DHT22;29904;51.058;5.378;2022-09-13T05:08:34;18.30;99.90
44229;DHT22;29904;51.058;5.378;2022-09-13T05:11:00;18.30;99.90
44229;DHT22;29904;51.058;5.378;2022-09-13T05:13:27;18.30;99.90
44229;DHT22;29904;51.058;5.378;2022-09-13T05:16:02;18.30;99.90
44229;DHT22;29904;51.058;5.378;2022-09-13T05:18:30;18.40;99.90
44229;DHT22;29904;51.058;5.378;2022-09-13T05:20:58;18.40;99.90
44229;DHT22;29904;51.058;5.378;2022-09-13T05:23:25;18.40;99.90
44229;DHT22;29904;51.058;5.378;2022-09-13T05:26:04;18.40;99.90
44229;DHT22;29904;51.058;5.378;2022-09-13T05:28:32;18.40;99.90
44229;DHT22;29904;51.058;5.378;2022-09-13T05:31:05;18.40;99.90
44229;DHT22;29904;51.058;5.378;2022-09-13T05:33:34;18.30;99.90
44229;DHT22;29904;51.058;5.378;2022-09-13T05:36:01;18.40;99.90
44229;DHT22;29904;51.058;5.378;2022-09-13T05:38:27;18.30;99.90
44229;DHT22;29904;51.058;5.378;2022-09-13T05:40:54;18.40;99.90
44229;DHT22;29904;51.058;5.378;2022-09-13T05:43:31;18.40;99.90
44229;DHT22;29904;51.058;5.378;2022-09-13T05:46:03;18.30;99.90
44229;DHT22;29904;51.058;5.378;2022-09-13T05:48:30;18.30;99.90
44229;DHT22;29904;51.058;5.378;2022-09-13T05:50:56;18.40;99.90
44229;DHT22;29904;51.058;5.378;2022-09-13T05:53:22;18.40;99.90
44229;DHT22;29904;51.058;5.378;2022-09-13T05:55:47;18.40;99.90
44229;DHT22;29904;51.058;5.378;2022-09-13T05:58:13;18.40;99.90
44229;DHT22;29904;51.058;5.378;2022-09-13T06:00:39;18.50;99.90
44229;DHT22;29904;51.058;5.378;2022-09-13T06:03:04;18.50;99.90
44229;DHT22;29904;51.058;5.378;2022-09-13T06:05:30;18.50;99.90
44229;DHT22;29904;51.058;5.378;2022-09-13T06:07:56;18.60;99.90
44229;DHT22;29904;51.058;5.378;2022-09-13T06:10:21;18.60;99.90
44229;DHT22;29904;51.058;5.378;2022-09-13T06:12:52;18.60;99.90
44229;DHT22;29904;51.058;5.378;2022-09-13T06:15:18;18.70;99.90
44229;DHT22;29904;51.058;5.378;2022-09-13T06:17:43;18.70;99.90
44229;DHT22;29904;51.058;5.378;2022-09-13T06:20:12;18.80;99.90
44229;DHT22;29904;51.058;5.378;2022-09-13T06:22:40;18.80;99.90
44229;DHT22;29904;51.058;5.378;2022-09-13T06:25:06;18.90;99.90
44229;DHT22;29904;51.058;5.378;2022-09-13T06:27:32;18.90;99.90
44229;DHT22;29904;51.058;5.378;2022-09-13T06:30:01;19.00;99.90
44229;DHT22;29904;51.058;5.378;2022-09-13T06:32:29;19.00;99.90
44229;DHT22;29904;51.058;5.378;2022-09-13T06:34:55;19.10;99.90
44229;DHT22;29904;51.058;5.378;2022-09-13T06:37:24;19.10;99.90
44229;DHT22;29904;51.058;5.378;2022-09-13T06:39:52;19.20;99.90
44229;DHT22;29904;51.058;5.378;2022-09-13T06:42:18;19.20;99.90
44229;DHT22;29904;51.058;5.378;2022-09-13T06:44:44;19.30;99.90
44229;DHT22;29904;51.058;5.378;2022-09-13T06:47:13;19.30;99.90
44229;DHT22;29904;51.058;5.378;2022-09-13T06:49:38;19.40;99.90
44229;DHT22;29904;51.058;5.378;2022-09-13T06:52:04;19.40;99.90
44229;DHT22;29904;51.058;5.378;2022-09-13T06:54:32;19.50;99.90
44229;DHT22;29904;51.058;5.378;2022-09-13T06:56:58;19.60;99.90
44229;DHT22;29904;51.058;5.378;2022-09-13T06:59:24;19.60;99.90
44229;DHT22;29904;51.058;5.378;2022-09-13T07:01:49;19.60;99.90
44229;DHT22;29904;51.058;5.378;2022-09-13T07:04:17;19.70;99.90
44229;DHT22;29904;51.058;5.378;2022-09-13T07:06:48;19.80;99.90
44229;DHT22;29904;51.058;5.378;2022-09-13T07:09:17;19.90;99.90
44229;DHT22;29904;51.058;5.378;2022-09-13T07:11:46;19.90;99.90
44229;DHT22;29904;51.058;5.378;2022-09-13T07:14:14;20.00;99.90
44229;DHT22;29904;51.058;5.378;2022-09-13T07:16:40;20.00;99.90
44229;DHT22;29904;51.058;5.378;2022-09-13T07:19:09;20.10;99.90
44229;DHT22;29904;51.058;5.378;2022-09-13T07:21:36;20.10;99.90
44229;DHT22;29904;51.058;5.378;2022-09-13T07:24:02;20.10;99.90
44229;DHT22;29904;51.058;5.378;2022-09-13T07:26:30;20.20;99.90
44229;DHT22;29904;51.058;5.378;2022-09-13T07:28:59;20.30;99.90
44229;DHT22;29904;51.058;5.378;2022-09-13T07:31:28;20.40;99.90
44229;DHT22;29904;51.058;5.378;2022-09-13T07:33:59;20.50;99.90
44229;DHT22;29904;51.058;5.378;2022-09-13T07:36:27;20.50;99.90
44229;DHT22;29904;51.058;5.378;2022-09-13T07:38:54;20.60;99.90
44229;DHT22;29904;51.058;5.378;2022-09-13T07:41:21;20.70;99.90
44229;DHT22;29904;51.058;5.378;2022-09-13T07:43:48;20.80;99.90
44229;DHT22;29904;51.058;5.378;2022-09-13T07:46:16;20.90;99.90
44229;DHT22;29904;51.058;5.378;2022-09-13T07:48:43;21.10;99.90
44229;DHT22;29904;51.058;5.378;2022-09-13T07:51:10;21.10;99.90
44229;DHT22;29904;51.058;5.378;2022-09-13T07:53:37;21.30;99.90
44229;DHT22;29904;51.058;5.378;2022-09-13T07:56:05;21.40;99.90
44229;DHT22;29904;51.058;5.378;2022-09-13T07:58:32;21.50;99.90
44229;DHT22;29904;51.058;5.378;2022-09-13T08:03:38;21.60;99.90
44229;DHT22;29904;51.058;5.378;2022-09-13T08:06:05;21.80;99.90
44229;DHT22;29904;51.058;5.378;2022-09-13T08:08:31;21.90;99.90
44229;DHT22;29904;51.058;5.378;2022-09-13T08:10:59;21.90;99.90
44229;DHT22;29904;51.058;5.378;2022-09-13T08:13:26;22.00;99.90
44229;DHT22;29904;51.058;5.378;2022-09-13T08:15:53;22.20;99.90
44229;DHT22;29904;51.058;5.378;2022-09-13T08:18:19;22.30;99.90
44229;DHT22;29904;51.058;5.378;2022-09-13T08:20:45;22.40;99.90
44229;DHT22;29904;51.058;5.378;2022-09-13T08:23:11;22.50;99.90
44229;DHT22;29904;51.058;5.378;2022-09-13T08:25:40;22.60;99.90
44229;DHT22;29904;51.058;5.378;2022-09-13T08:30:33;22.80;99.90
44229;DHT22;29904;51.058;5.378;2022-09-13T08:33:00;22.80;99.90
44229;DHT22;29904;51.058;5.378;2022-09-13T08:35:29;22.90;99.90
44229;DHT22;29904;51.058;5.378;2022-09-13T08:37:55;23.00;99.90
44229;DHT22;29904;51.058;5.378;2022-09-13T08:40:23;23.10;99.90
44229;DHT22;29904;51.058;5.378;2022-09-13T08:43:12;23.20;99.90
44229;DHT22;29904;51.058;5.378;2022-09-13T08:45:40;23.20;99.90
44229;DHT22;29904;51.058;5.378;2022-09-13T08:48:15;23.20;99.90
44229;DHT22;29904;51.058;5.378;2022-09-13T08:50:43;23.30;99.90
44229;DHT22;29904;51.058;5.378;2022-09-13T08:53:29;23.40;99.90
44229;DHT22;29904;51.058;5.378;2022-09-13T08:56:21;23.50;99.90
44229;DHT22;29904;51.058;5.378;2022-09-13T08:59:15;23.70;99.90
44229;DHT22;29904;51.058;5.378;2022-09-13T09:04:55;24.10;99.90
44229;DHT22;29904;51.058;5.378;2022-09-13T09:07:26;24.30;99.90
44229;DHT22;29904;51.058;5.378;2022-09-13T09:10:04;24.40;99.90
44229;DHT22;29904;51.058;5.378;2022-09-13T09:19:27;24.80;99.90
44229;DHT22;29904;51.058;5.378;2022-09-13T09:21:59;24.80;99.90
44229;DHT22;29904;51.058;5.378;2022-09-13T09:24:28;24.80;99.90
44229;DHT22;29904;51.058;5.378;2022-09-13T09:26:58;24.80;99.90
44229;DHT22;29904;51.058;5.378;2022-09-13T09:29:30;24.90;99.90
44229;DHT22;29904;51.058;5.378;2022-09-13T09:32:14;24.90;99.90
44229;DHT22;29904;51.058;5.378;2022-09-13T09:35:09;25.00;99.90
44229;DHT22;29904;51.058;5.378;2022-09-13T09:37:31;25.10;99.90
44229;DHT22;29904;51.058;5.378;2022-09-13T09:40:00;25.20;99.90
44229;DHT22;29904;51.058;5.378;2022-09-13T09:42:31;25.30;99.90
44229;DHT22;29904;51.058;5.378;2022-09-13T09:45:03;25.20;99.90
44229;DHT22;29904;51.058;5.378;2022-09-13T09:47:50;25.30;99.90
44229;DHT22;29904;51.058;5.378;2022-09-13T09:50:25;25.30;99.90
44229;DHT22;29904;51.058;5.378;2022-09-13T09:53:08;25.30;99.90
44229;DHT22;29904;51.058;5.378;2022-09-13T09:58:41;25.50;99.90
44229;DHT22;29904;51.058;5.378;2022-09-13T10:01:26;25.50;99.90
44229;DHT22;29904;51.058;5.378;2022-09-13T10:04:04;25.60;99.90
44229;DHT22;29904;51.058;5.378;2022-09-13T10:06:36;25.60;99.90
44229;DHT22;29904;51.058;5.378;2022-09-13T10:09:06;25.60;99.90
44229;DHT22;29904;51.058;5.378;2022-09-13T10:11:44;25.60;99.90
44229;DHT22;29904;51.058;5.378;2022-09-13T10:14:37;25.60;99.90
44229;DHT22;29904;51.058;5.378;2022-09-13T10:17:28;25.60;99.90
44229;DHT22;29904;51.058;5.378;2022-09-13T10:22:27;26.10;99.90
44229;DHT22;29904;51.058;5.378;2022-09-13T10:24:53;26.40;99.90
44229;DHT22;29904;51.058;5.378;2022-09-13T10:27:25;26.60;99.90
44229;DHT22;29904;51.058;5.378;2022-09-13T10:29:54;26.70;99.90
44229;DHT22;29904;51.058;5.378;2022-09-13T10:32:25;26.70;99.90
44229;DHT22;29904;51.058;5.378;2022-09-13T10:34:51;26.60;99.90
44229;DHT22;29904;51.058;5.378;2022-09-13T10:37:25;26.30;99.90
44229;DHT22;29904;51.058;5.378;2022-09-13T10:39:59;26.20;99.90
44229;DHT22;29904;51.058;5.378;2022-09-13T10:42:27;26.20;99.90
44229;DHT22;29904;51.058;5.378;2022-09-13T10:44:57;26.20;99.90
44229;DHT22;29904;51.058;5.378;2022-09-13T10:52:46;26.60;99.90
44229;DHT22;29904;51.058;5.378;2022-09-13T11:09:26;26.20;99.90
44229;DHT22;29904;51.058;5.378;2022-09-13T11:11:58;26.30;99.90
44229;DHT22;29904;51.058;5.378;2022-09-13T11:26:20;26.80;99.90
44229;DHT22;29904;51.058;5.378;2022-09-13T11:34:34;27.30;99.90
44229;DHT22;29904;51.058;5.378;2022-09-13T11:37:36;27.60;99.90
44229;DHT22;29904;51.058;5.378;2022-09-13T11:46:03;28.00;99.90
44229;DHT22;29904;51.058;5.378;2022-09-13T11:48:53;28.00;99.90
44229;DHT22;29904;51.058;5.378;2022-09-13T11:56:53;28.50;99.90
44229;DHT22;29904;51.058;5.378;2022-09-13T12:01:59;28.80;99.90
44229;DHT22;29904;51.058;5.378;2022-09-13T12:04:34;29.00;99.90
44229;DHT22;29904;51.058;5.378;2022-09-13T12:07:08;29.00;99.90
44229;DHT22;29904;51.058;5.378;2022-09-13T12:09:45;29.20;99.90
44229;DHT22;29904;51.058;5.378;2022-09-13T12:12:12;29.10;99.90
44229;DHT22;29904;51.058;5.378;2022-09-13T12:14:51;28.80;99.90
44229;DHT22;29904;51.058;5.378;2022-09-13T12:17:25;28.60;99.90
44229;DHT22;29904;51.058;5.378;2022-09-13T12:19:55;28.60;99.90
44229;DHT22;29904;51.058;5.378;2022-09-13T12:22:28;28.50;99.90
44229;DHT22;29904;51.058;5.378;2022-09-13T12:24:57;28.50;99.90
44229;DHT22;29904;51.058;5.378;2022-09-13T12:27:28;28.40;99.90
44229;DHT22;29904;51.058;5.378;2022-09-13T12:32:42;28.10;99.90
44229;DHT22;29904;51.058;5.378;2022-09-13T12:35:32;28.20;99.90
44229;DHT22;29904;51.058;5.378;2022-09-13T12:52:46;30.30;99.90
44229;DHT22;29904;51.058;5.378;2022-09-13T12:55:59;30.40;99.90
44229;DHT22;29904;51.058;5.378;2022-09-13T13:01:20;30.00;99.90
44229;DHT22;29904;51.058;5.378;2022-09-13T13:03:55;29.80;99.90
44229;DHT22;29904;51.058;5.378;2022-09-13T13:06:35;29.60;99.90
44229;DHT22;29904;51.058;5.378;2022-09-13T13:12:08;29.90;99.90
44229;DHT22;29904;51.058;5.378;2022-09-13T13:23:29;30.30;99.90
44229;DHT22;29904;51.058;5.378;2022-09-13T13:36:30;29.80;99.90
44229;DHT22;29904;51.058;5.378;2022-09-13T13:39:01;29.50;99.90
44229;DHT22;29904;51.058;5.378;2022-09-13T13:46:42;29.30;99.90
44229;DHT22;29904;51.058;5.378;2022-09-13T13:57:27;28.80;99.90
44229;DHT22;29904;51.058;5.378;2022-09-13T14:08:10;27.80;99.90
44229;DHT22;29904;51.058;5.378;2022-09-13T14:17:06;27.00;99.90
44229;DHT22;29904;51.058;5.378;2022-09-13T14:19:47;26.80;99.90
44229;DHT22;29904;51.058;5.378;2022-09-13T14:24:43;26.40;99.90
44229;DHT22;29904;51.058;5.378;2022-09-13T14:27:32;26.30;99.90
44229;DHT22;29904;51.058;5.378;2022-09-13T14:30:01;26.10;99.90
44229;DHT22;29904;51.058;5.378;2022-09-13T14:32:32;26.00;99.90
44229;DHT22;29904;51.058;5.378;2022-09-13T14:35:06;25.90;99.90
44229;DHT22;29904;51.058;5.378;2022-09-13T14:37:46;25.80;99.90
44229;DHT22;29904;51.058;5.378;2022-09-13T14:40:17;25.70;99.90
44229;DHT22;29904;51.058;5.378;2022-09-13T14:42:46;25.60;99.90
44229;DHT22;29904;51.058;5.378;2022-09-13T14:45:19;25.40;99.90
44229;DHT22;29904;51.058;5.378;2022-09-13T14:48:06;25.30;99.90
44229;DHT22;29904;51.058;5.378;2022-09-13T14:50:41;25.10;99.90
44229;DHT22;29904;51.058;5.378;2022-09-13T14:53:21;25.00;99.90
44229;DHT22;29904;51.058;5.378;2022-09-13T14:56:04;24.90;99.90
44229;DHT22;29904;51.058;5.378;2022-09-13T15:01:13;24.50;99.90
44229;DHT22;29904;51.058;5.378;2022-09-13T15:03:42;24.40;99.90
44229;DHT22;29904;51.058;5.378;2022-09-13T15:06:26;24.40;99.90
44229;DHT22;29904;51.058;5.378;2022-09-13T15:09:13;24.30;99.90
44229;DHT22;29904;51.058;5.378;2022-09-13T15:14:28;24.20;99.90
44229;DHT22;29904;51.058;5.378;2022-09-13T15:19:40;24.30;99.90
44229;DHT22;29904;51.058;5.378;2022-09-13T15:22:26;24.30;99.90
44229;DHT22;29904;51.058;5.378;2022-09-13T15:24:56;24.30;99.90
44229;DHT22;29904;51.058;5.378;2022-09-13T15:27:30;24.40;99.90
44229;DHT22;29904;51.058;5.378;2022-09-13T15:30:05;24.40;99.90
44229;DHT22;29904;51.058;5.378;2022-09-13T15:32:33;24.40;99.90
44229;DHT22;29904;51.058;5.378;2022-09-13T15:35:00;24.30;99.90
44229;DHT22;29904;51.058;5.378;2022-09-13T15:37:33;24.30;99.90
44229;DHT22;29904;51.058;5.378;2022-09-13T15:40:20;24.30;99.90
44229;DHT22;29904;51.058;5.378;2022-09-13T15:42:51;24.20;99.90
44229;DHT22;29904;51.058;5.378;2022-09-13T15:45:19;24.10;99.90
44229;DHT22;29904;51.058;5.378;2022-09-13T15:47:51;24.10;99.90
44229;DHT22;29904;51.058;5.378;2022-09-13T15:50:26;24.00;99.90
44229;DHT22;29904;51.058;5.378;2022-09-13T15:52:56;23.90;99.90
44229;DHT22;29904;51.058;5.378;2022-09-13T15:55:22;23.80;99.90
44229;DHT22;29904;51.058;5.378;2022-09-13T15:57:48;23.80;99.90
44229;DHT22;29904;51.058;5.378;2022-09-13T16:00:22;23.70;99.90
44229;DHT22;29904;51.058;5.378;2022-09-13T16:02:49;23.50;99.90
44229;DHT22;29904;51.058;5.378;2022-09-13T16:05:15;23.40;99.90
44229;DHT22;29904;51.058;5.378;2022-09-13T16:07:41;23.20;99.90
44229;DHT22;29904;51.058;5.378;2022-09-13T16:10:17;23.00;99.90
44229;DHT22;29904;51.058;5.378;2022-09-13T16:12:43;22.80;99.90
44229;DHT22;29904;51.058;5.378;2022-09-13T16:15:10;22.70;99.90
44229;DHT22;29904;51.058;5.378;2022-09-13T16:17:37;22.50;99.90
44229;DHT22;29904;51.058;5.378;2022-09-13T16:20:04;22.40;99.90
44229;DHT22;29904;51.058;5.378;2022-09-13T16:22:31;22.30;99.90
44229;DHT22;29904;51.058;5.378;2022-09-13T16:24:57;22.20;99.90
44229;DHT22;29904;51.058;5.378;2022-09-13T16:27:25;22.10;99.90
44229;DHT22;29904;51.058;5.378;2022-09-13T16:29:52;22.10;99.90
44229;DHT22;29904;51.058;5.378;2022-09-13T16:32:19;22.10;99.90
44229;DHT22;29904;51.058;5.378;2022-09-13T16:34:47;22.00;99.90
44229;DHT22;29904;51.058;5.378;2022-09-13T16:37:17;21.90;99.90
44229;DHT22;29904;51.058;5.378;2022-09-13T16:39:43;21.90;99.90
44229;DHT22;29904;51.058;5.378;2022-09-13T16:42:11;21.90;99.90
44229;DHT22;29904;51.058;5.378;2022-09-13T16:44:37;21.90;99.90
44229;DHT22;29904;51.058;5.378;2022-09-13T16:47:03;22.00;99.90
44229;DHT22;29904;51.058;5.378;2022-09-13T16:49:29;22.00;99.90
44229;DHT22;29904;51.058;5.378;2022-09-13T16:51:55;22.00;99.90
44229;DHT22;29904;51.058;5.378;2022-09-13T16:54:25;22.00;99.90
44229;DHT22;29904;51.058;5.378;2022-09-13T16:56:51;22.90;99.90
44229;DHT22;29904;51.058;5.378;2022-09-13T16:59:17;22.00;99.90
44229;DHT22;29904;51.058;5.378;2022-09-13T17:01:43;21.90;99.90
44229;DHT22;29904;51.058;5.378;2022-09-13T17:04:09;21.90;99.90
44229;DHT22;29904;51.058;5.378;2022-09-13T17:06:36;21.90;99.90
44229;DHT22;29904;51.058;5.378;2022-09-13T17:09:03;21.90;99.90
44229;DHT22;29904;51.058;5.378;2022-09-13T17:11:33;21.90;99.90
44229;DHT22;29904;51.058;5.378;2022-09-13T17:14:01;21.90;99.90
44229;DHT22;29904;51.058;5.378;2022-09-13T17:16:30;21.90;99.90
44229;DHT22;29904;51.058;5.378;2022-09-13T17:18:58;21.90;99.90
44229;DHT22;29904;51.058;5.378;2022-09-13T17:21:25;21.90;99.90
44229;DHT22;29904;51.058;5.378;2022-09-13T17:23:51;21.90;99.90
44229;DHT22;29904;51.058;5.378;2022-09-13T17:26:17;22.00;99.90
44229;DHT22;29904;51.058;5.378;2022-09-13T17:28:43;22.00;99.90
44229;DHT22;29904;51.058;5.378;2022-09-13T17:31:08;22.00;99.90
44229;DHT22;29904;51.058;5.378;2022-09-13T17:33:34;21.90;99.90
44229;DHT22;29904;51.058;5.378;2022-09-13T17:36:06;21.90;99.90
44229;DHT22;29904;51.058;5.378;2022-09-13T17:38:33;21.90;99.90
44229;DHT22;29904;51.058;5.378;2022-09-13T17:41:19;21.80;99.90
44229;DHT22;29904;51.058;5.378;2022-09-13T17:43:47;21.80;99.90
44229;DHT22;29904;51.058;5.378;2022-09-13T17:46:21;21.70;99.90
44229;DHT22;29904;51.058;5.378;2022-09-13T17:48:49;21.60;99.90
44229;DHT22;29904;51.058;5.378;2022-09-13T17:51:16;21.60;99.90
44229;DHT22;29904;51.058;5.378;2022-09-13T17:53:45;21.60;99.90
44229;DHT22;29904;51.058;5.378;2022-09-13T17:56:16;21.50;99.90
44229;DHT22;29904;51.058;5.378;2022-09-13T17:58:43;21.40;99.90
44229;DHT22;29904;51.058;5.378;2022-09-13T18:01:09;21.30;99.90
44229;DHT22;29904;51.058;5.378;2022-09-13T18:03:37;21.30;99.90
44229;DHT22;29904;51.058;5.378;2022-09-13T18:06:05;21.20;99.90
44229;DHT22;29904;51.058;5.378;2022-09-13T18:08:32;21.20;99.90
44229;DHT22;29904;51.058;5.378;2022-09-13T18:11:10;21.10;99.90
44229;DHT22;29904;51.058;5.378;2022-09-13T18:13:36;21.00;99.90
44229;DHT22;29904;51.058;5.378;2022-09-13T18:16:07;20.90;99.90
44229;DHT22;29904;51.058;5.378;2022-09-13T18:18:35;20.80;99.90
44229;DHT22;29904;51.058;5.378;2022-09-13T18:21:01;20.70;99.90
44229;DHT22;29904;51.058;5.378;2022-09-13T18:23:27;20.60;99.90
44229;DHT22;29904;51.058;5.378;2022-09-13T18:26:05;20.40;99.90
44229;DHT22;29904;51.058;5.378;2022-09-13T18:28:31;20.30;99.90
44229;DHT22;29904;51.058;5.378;2022-09-13T18:30:59;20.20;99.90
44229;DHT22;29904;51.058;5.378;2022-09-13T18:33:25;20.20;99.90
44229;DHT22;29904;51.058;5.378;2022-09-13T18:35:58;20.10;99.90
44229;DHT22;29904;51.058;5.378;2022-09-13T18:38:25;20.10;99.90
44229;DHT22;29904;51.058;5.378;2022-09-13T18:43:27;20.10;99.90
44229;DHT22;29904;51.058;5.378;2022-09-13T18:45:58;20.10;99.90
44229;DHT22;29904;51.058;5.378;2022-09-13T18:48:28;20.10;99.90
44229;DHT22;29904;51.058;5.378;2022-09-13T18:50:55;20.10;99.90
44229;DHT22;29904;51.058;5.378;2022-09-13T18:53:20;20.00;99.90
44229;DHT22;29904;51.058;5.378;2022-09-13T18:55:46;20.00;99.90
44229;DHT22;29904;51.058;5.378;2022-09-13T18:58:12;20.00;99.90
44229;DHT22;29904;51.058;5.378;2022-09-13T19:00:41;20.00;99.90
44229;DHT22;29904;51.058;5.378;2022-09-13T19:03:08;19.90;99.90
44229;DHT22;29904;51.058;5.378;2022-09-13T19:05:35;19.90;99.90
44229;DHT22;29904;51.058;5.378;2022-09-13T19:08:09;19.90;99.90
44229;DHT22;29904;51.058;5.378;2022-09-13T19:10:36;19.90;99.90
44229;DHT22;29904;51.058;5.378;2022-09-13T19:13:03;19.90;99.90
44229;DHT22;29904;51.058;5.378;2022-09-13T19:15:29;20.00;99.90
44229;DHT22;29904;51.058;5.378;2022-09-13T19:17:55;19.90;99.90
44229;DHT22;29904;51.058;5.378;2022-09-13T19:20:21;19.90;99.90